Time;durP1;ratioP1;P1;durP2;ratioP2;P2;SDS_P1;SDS_P2;PMS_P1;PMS_P2;Temp;Humidity;BMP_temperature;BMP_pressure;BME280_temperature;BME280_humidity;BME280_pressure;Samples;Min_cycle;Max_cycle;Signal;HPM_P1;HPM_P2
2022/09/04 00:02:58;;;;;;;5.05;1.40;;;17.30;89.70;;;;;;5156630;27;20045;-78
2022/09/04 00:05:27;;;;;;;2.67;1.45;;;17.30;89.90;;;;;;5156530;27;20054;-79
2022/09/04 00:08:20;;;;;;;3.30;1.30;;;17.20;89.90;;;;;;5155911;27;20046;-78
2022/09/04 00:11:18;;;;;;;2.90;1.50;;;17.20;90.10;;;;;;5156109;27;20049;-79
2022/09/04 00:14:11;;;;;;;2.55;1.45;;;17.20;90.20;;;;;;5137643;27;20096;-79
2022/09/04 00:16:57;;;;;;;4.07;1.50;;;17.10;90.50;;;;;;5137351;27;20073;-79
2022/09/04 00:19:48;;;;;;;2.28;1.30;;;17.10;90.30;;;;;;5155793;27;20042;-78
2022/09/04 00:22:32;;;;;;;2.28;1.38;;;17.10;90.40;;;;;;5155701;27;20065;-78
2022/09/04 00:25:06;;;;;;;3.05;1.30;;;17.00;90.50;;;;;;5137637;27;20051;-78
2022/09/04 00:27:43;;;;;;;2.60;1.60;;;17.00;90.50;;;;;;5155921;27;20039;-78
2022/09/04 00:30:13;;;;;;;4.45;1.40;;;16.90;90.40;;;;;;5138241;27;20489;-78
2022/09/04 00:32:57;;;;;;;4.45;1.85;;;16.90;90.50;;;;;;5155508;27;20087;-78
2022/09/04 00:35:34;;;;;;;2.22;1.30;;;16.80;90.70;;;;;;5137442;27;20046;-78
2022/09/04 00:38:24;;;;;;;4.60;1.58;;;16.80;90.60;;;;;;5155544;27;20047;-78
2022/09/04 00:41:00;;;;;;;2.45;1.50;;;16.80;90.80;;;;;;5155547;27;20430;-78
2022/09/04 00:43:37;;;;;;;4.78;1.45;;;16.80;90.80;;;;;;5155444;27;20046;-79
2022/09/04 00:46:40;;;;;;;3.47;1.70;;;16.70;90.80;;;;;;5155430;27;20086;-79
2022/09/04 00:49:23;;;;;;;3.72;1.38;;;16.70;90.90;;;;;;5137153;27;20057;-78
2022/09/04 00:52:16;;;;;;;5.93;1.58;;;16.70;90.80;;;;;;5155780;27;20068;-79
2022/09/04 00:55:19;;;;;;;3.97;1.45;;;16.70;91.00;;;;;;5155253;27;20057;-78
2022/09/04 00:57:54;;;;;;;3.78;1.80;;;16.60;91.10;;;;;;5155248;27;20039;-79
2022/09/04 01:00:21;;;;;;;5.13;1.63;;;16.60;91.10;;;;;;5155272;27;20051;-79
2022/09/04 01:03:06;;;;;;;4.68;1.90;;;16.50;91.20;;;;;;5136696;27;20049;-79
2022/09/04 01:06:08;;;;;;;3.28;1.40;;;16.50;91.40;;;;;;5155734;27;20042;-78
2022/09/04 01:09:06;;;;;;;9.77;1.88;;;16.50;91.50;;;;;;5155192;27;20190;-79
2022/09/04 01:11:52;;;;;;;3.67;1.70;;;16.40;91.40;;;;;;5155197;27;20057;-78
2022/09/04 01:14:41;;;;;;;3.70;1.70;;;16.40;91.60;;;;;;5136957;27;20055;-78
2022/09/04 01:17:51;;;;;;;4.80;1.70;;;16.40;91.50;;;;;;5137298;27;20078;-79
2022/09/04 01:20:51;;;;;;;4.20;1.77;;;16.30;91.80;;;;;;5137185;27;20042;-79
2022/09/04 01:23:27;;;;;;;4.70;1.70;;;16.30;91.80;;;;;;5136592;27;20050;-78
2022/09/04 01:26:03;;;;;;;3.20;1.70;;;16.30;91.80;;;;;;5159439;27;20046;-78
2022/09/04 01:28:57;;;;;;;6.40;1.80;;;16.20;91.70;;;;;;5159279;27;20038;-78
2022/09/04 01:31:49;;;;;;;4.85;1.70;;;16.20;91.80;;;;;;5159119;27;20086;-78
2022/09/04 01:34:33;;;;;;;4.78;1.88;;;16.20;92.10;;;;;;5160018;27;20089;-78
2022/09/04 01:37:26;;;;;;;3.40;1.60;;;16.30;92.20;;;;;;5158884;27;20059;-78
2022/09/04 01:40:22;;;;;;;5.95;1.70;;;16.10;92.10;;;;;;5158740;27;20062;-78
2022/09/04 01:42:52;;;;;;;5.53;1.80;;;16.10;92.20;;;;;;5159060;27;20054;-78
2022/09/04 01:45:47;;;;;;;4.65;1.60;;;16.10;92.20;;;;;;5158960;27;20058;-79
2022/09/04 01:48:18;;;;;;;5.57;1.80;;;16.00;92.30;;;;;;5158084;27;20046;-78
2022/09/04 01:50:49;;;;;;;3.30;1.80;;;16.00;92.30;;;;;;5158396;27;20474;-79
2022/09/04 01:53:24;;;;;;;4.50;1.75;;;16.00;92.60;;;;;;5158888;27;20034;-78
2022/09/04 01:55:58;;;;;;;3.90;1.58;;;16.10;92.70;;;;;;5158561;27;20042;-78
2022/09/04 01:58:39;;;;;;;3.33;1.60;;;15.90;92.70;;;;;;5158353;27;20042;-79
2022/09/04 02:01:17;;;;;;;4.28;1.60;;;15.90;92.80;;;;;;5139838;27;20038;-78
2022/09/04 02:03:48;;;;;;;3.65;1.70;;;15.90;92.80;;;;;;5158634;27;20047;-78
2022/09/04 02:06:46;;;;;;;3.65;1.73;;;15.90;92.90;;;;;;5158714;27;20413;-79
2022/09/04 02:09:34;;;;;;;3.85;1.88;;;15.80;93.00;;;;;;5158669;27;20099;-78
2022/09/04 02:12:34;;;;;;;2.72;1.77;;;15.80;93.20;;;;;;5158209;27;20079;-78
2022/09/04 02:15:30;;;;;;;3.78;1.60;;;15.80;93.40;;;;;;5128986;27;20086;-78
2022/09/04 02:18:30;;;;;;;3.28;1.80;;;15.70;93.40;;;;;;5158450;27;20464;-78
2022/09/04 02:21:04;;;;;;;4.22;1.77;;;15.70;93.30;;;;;;5158158;27;20042;-78
2022/09/04 02:23:45;;;;;;;6.00;1.70;;;15.60;93.50;;;;;;5157925;27;20390;-78
2022/09/04 02:26:26;;;;;;;3.63;1.95;;;15.60;93.50;;;;;;5157979;27;20054;-78
2022/09/04 02:29:10;;;;;;;4.03;1.55;;;15.60;93.60;;;;;;5157827;27;20092;-78
2022/09/04 02:31:59;;;;;;;4.20;1.65;;;15.50;93.60;;;;;;5157998;27;20046;-78
2022/09/04 02:35:07;;;;;;;3.15;1.67;;;15.50;93.80;;;;;;5142197;27;20062;-78
2022/09/04 02:37:43;;;;;;;2.60;1.70;;;15.40;93.90;;;;;;5157912;27;20049;-78
2022/09/04 02:40:15;;;;;;;3.33;1.70;;;15.40;93.80;;;;;;5157702;27;20509;-78
2022/09/04 02:43:08;;;;;;;2.45;1.73;;;15.40;93.90;;;;;;5157953;27;20081;-78
2022/09/04 02:45:39;;;;;;;5.07;1.70;;;15.40;94.10;;;;;;5157811;27;20043;-78
2022/09/04 02:48:46;;;;;;;3.08;1.58;;;15.30;94.00;;;;;;5157523;27;20078;-78
2022/09/04 02:51:33;;;;;;;5.63;1.83;;;15.30;94.30;;;;;;5065454;27;20110;-78
2022/09/04 02:54:26;;;;;;;3.53;2.00;;;15.30;94.30;;;;;;5157462;27;20082;-78
2022/09/04 02:57:27;;;;;;;6.32;1.95;;;15.20;94.50;;;;;;5157346;27;20038;-78
2022/09/04 03:00:16;;;;;;;3.22;1.88;;;15.20;94.60;;;;;;5157669;27;20047;-79
2022/09/04 03:02:54;;;;;;;4.93;1.70;;;15.20;94.70;;;;;;5138850;27;20064;-78
2022/09/04 03:05:28;;;;;;;5.47;2.20;;;15.20;94.60;;;;;;5157293;27;20371;-78
2022/09/04 03:08:32;;;;;;;5.28;2.03;;;15.10;94.80;;;;;;5157230;27;20043;-78
2022/09/04 03:11:13;;;;;;;3.63;1.83;;;15.10;95.00;;;;;;5140133;27;20062;-78
2022/09/04 03:14:03;;;;;;;5.72;1.98;;;15.00;95.00;;;;;;5121626;27;20050;-78
2022/09/04 03:16:47;;;;;;;5.28;1.92;;;15.00;95.10;;;;;;5139038;27;20046;-78
2022/09/04 03:19:58;;;;;;;4.13;2.13;;;15.00;95.30;;;;;;5138802;27;20058;-78
2022/09/04 03:22:39;;;;;;;4.35;2.00;;;14.90;95.30;;;;;;5157019;27;20482;-78
2022/09/04 03:25:43;;;;;;;3.20;1.90;;;14.90;95.40;;;;;;5157162;27;20381;-78
2022/09/04 03:28:23;;;;;;;3.22;1.80;;;14.90;95.40;;;;;;5099824;27;20055;-78
2022/09/04 03:30:50;;;;;;;7.22;2.05;;;15.00;95.80;;;;;;5157189;27;20434;-78
2022/09/04 03:33:45;;;;;;;4.55;2.05;;;14.80;95.50;;;;;;5156207;27;20160;-78
2022/09/04 03:36:27;;;;;;;5.80;2.00;;;14.80;95.80;;;;;;5154295;27;20450;-78
2022/09/04 03:39:05;;;;;;;4.55;2.13;;;14.80;95.80;;;;;;5156428;27;20043;-78
2022/09/04 03:41:39;;;;;;;4.65;2.15;;;14.70;95.80;;;;;;5156755;27;20074;-78
2022/09/04 03:44:50;;;;;;;5.53;1.88;;;14.90;95.90;;;;;;5156659;27;20107;-78
2022/09/04 03:47:15;;;;;;;4.70;2.00;;;14.70;96.20;;;;;;5051197;28;20107;-78
2022/09/04 03:49:59;;;;;;;8.97;2.93;;;14.70;96.00;;;;;;5052758;28;20053;-78
2022/09/04 03:52:44;;;;;;;3.60;2.10;;;14.70;96.40;;;;;;5117847;27;20055;-78
2022/09/04 03:55:32;;;;;;;4.22;2.50;;;14.60;96.20;;;;;;5156367;27;20039;-78
2022/09/04 03:58:23;;;;;;;7.05;2.40;;;14.60;96.20;;;;;;5137983;27;20050;-78
2022/09/04 04:01:00;;;;;;;4.07;2.15;;;14.50;96.50;;;;;;5120926;27;20050;-78
2022/09/04 04:03:53;;;;;;;5.03;2.13;;;14.60;96.40;;;;;;5156129;27;20428;-79
2022/09/04 04:06:28;;;;;;;4.72;2.35;;;14.50;96.70;;;;;;5156218;27;20490;-78
2022/09/04 04:09:10;;;;;;;7.63;2.45;;;14.60;96.60;;;;;;5156397;27;20047;-78
2022/09/04 04:12:03;;;;;;;4.07;2.20;;;14.50;96.60;;;;;;5155820;27;20474;-78
2022/09/04 04:14:58;;;;;;;7.25;2.63;;;14.50;96.70;;;;;;5155828;27;20080;-78
2022/09/04 04:17:57;;;;;;;5.13;2.50;;;14.50;96.80;;;;;;5137991;27;20092;-79
2022/09/04 04:20:55;;;;;;;7.43;2.47;;;14.50;96.90;;;;;;5156612;27;20047;-79
2022/09/04 04:23:42;;;;;;;5.18;2.40;;;14.40;97.30;;;;;;5120685;27;20050;-78
2022/09/04 04:26:46;;;;;;;4.20;2.53;;;14.40;97.40;;;;;;5155724;27;20039;-78
2022/09/04 04:29:47;;;;;;;4.13;2.50;;;14.30;97.20;;;;;;5152053;27;20677;-77
2022/09/04 04:32:51;;;;;;;4.15;2.47;;;14.30;97.40;;;;;;5155886;27;20163;-78
2022/09/04 04:35:17;;;;;;;5.45;2.45;;;14.30;97.40;;;;;;5118375;27;20409;-78
2022/09/04 04:38:07;;;;;;;7.63;2.47;;;14.30;97.40;;;;;;5155451;27;20047;-78
2022/09/04 04:40:47;;;;;;;3.70;2.05;;;14.30;97.60;;;;;;5155230;27;20081;-78
2022/09/04 04:43:16;;;;;;;5.72;2.72;;;14.30;97.50;;;;;;5155327;27;20046;-78
2022/09/04 04:46:02;;;;;;;3.70;2.35;;;14.30;97.60;;;;;;5155148;27;20408;-78
2022/09/04 04:48:50;;;;;;;6.53;2.78;;;14.30;97.70;;;;;;5155799;27;20055;-78
2022/09/04 04:51:53;;;;;;;5.95;2.42;;;14.20;98.20;;;;;;5155432;27;20173;-78
2022/09/04 04:54:50;;;;;;;4.35;2.45;;;14.20;97.80;;;;;;5155266;27;20039;-78
2022/09/04 04:57:30;;;;;;;3.95;2.50;;;14.20;97.90;;;;;;5155342;27;20049;-78
2022/09/04 05:00:18;;;;;;;4.22;2.28;;;14.20;97.80;;;;;;5159796;27;20046;-78
2022/09/04 05:03:21;;;;;;;5.05;2.47;;;14.20;98.00;;;;;;5140956;27;20526;-78
2022/09/04 05:06:16;;;;;;;8.35;2.75;;;14.20;98.10;;;;;;5159702;27;20106;-78
2022/09/04 05:09:00;;;;;;;4.88;2.50;;;14.20;98.30;;;;;;5159201;27;20038;-78
2022/09/04 05:11:33;;;;;;;4.53;2.50;;;14.20;98.30;;;;;;5159804;27;20095;-78
2022/09/04 05:14:08;;;;;;;4.00;2.33;;;14.30;98.20;;;;;;5159678;27;20050;-78
2022/09/04 05:17:13;;;;;;;4.80;2.38;;;14.20;98.30;;;;;;5159351;27;20060;-78
2022/09/04 05:20:13;;;;;;;5.47;2.53;;;14.20;98.40;;;;;;5159812;27;20051;-79
2022/09/04 05:23:04;;;;;;;4.82;2.55;;;14.20;98.50;;;;;;5158955;27;20128;-78
2022/09/04 05:25:32;;;;;;;6.88;2.38;;;14.20;98.50;;;;;;5159018;27;20520;-77
2022/09/04 05:28:18;;;;;;;5.30;2.47;;;14.30;98.50;;;;;;5159427;27;20045;-78
2022/09/04 05:31:14;;;;;;;5.50;2.92;;;14.30;98.90;;;;;;5140211;27;20481;-78
2022/09/04 05:33:50;;;;;;;5.68;2.55;;;14.30;98.90;;;;;;5140482;27;20054;-78
2022/09/04 05:36:41;;;;;;;6.32;2.42;;;14.30;99.00;;;;;;5159445;27;20117;-78
2022/09/04 05:39:36;;;;;;;4.53;2.53;;;14.40;99.30;;;;;;5159095;27;20551;-78
2022/09/04 05:42:29;;;;;;;4.88;2.53;;;14.40;99.10;;;;;;5158691;27;20046;-78
2022/09/04 05:45:20;;;;;;;5.05;2.65;;;14.40;99.00;;;;;;5158717;27;20042;-78
2022/09/04 05:48:06;;;;;;;4.13;2.10;;;14.50;99.20;;;;;;5158732;27;20039;-78
2022/09/04 05:51:11;;;;;;;10.02;3.15;;;14.50;98.90;;;;;;5158536;27;20055;-78
2022/09/04 05:53:57;;;;;;;4.30;2.38;;;14.50;99.20;;;;;;5074189;27;20110;-78
2022/09/04 05:56:36;;;;;;;4.35;2.58;;;14.50;98.90;;;;;;5158544;27;20043;-78
2022/09/04 05:59:26;;;;;;;8.55;2.55;;;14.60;98.90;;;;;;5158443;27;20098;-78
2022/09/04 06:02:10;;;;;;;4.50;2.38;;;14.60;99.20;;;;;;5140199;27;20098;-78
2022/09/04 06:04:54;;;;;;;5.18;2.58;;;14.70;98.80;;;;;;5158510;27;20134;-78
2022/09/04 06:07:49;;;;;;;5.43;2.45;;;14.70;98.90;;;;;;5158314;27;20047;-78
2022/09/04 06:10:39;;;;;;;6.80;2.78;;;14.80;98.70;;;;;;5134700;27;20054;-78
2022/09/04 06:13:22;;;;;;;6.60;2.30;;;14.90;98.80;;;;;;5158147;27;20062;-78
2022/09/04 06:16:06;;;;;;;5.95;2.78;;;14.90;98.70;;;;;;5158061;27;20043;-78
2022/09/04 06:18:41;;;;;;;6.60;2.45;;;15.00;98.70;;;;;;5158246;27;20042;-78
2022/09/04 06:21:39;;;;;;;6.43;2.53;;;15.10;98.60;;;;;;5140138;27;20054;-78
2022/09/04 06:24:25;;;;;;;3.88;2.40;;;15.10;98.70;;;;;;5157897;27;20099;-78
2022/09/04 06:27:28;;;;;;;5.00;2.30;;;15.20;98.40;;;;;;5157970;27;20051;-78
2022/09/04 06:30:07;;;;;;;5.78;2.65;;;15.30;98.40;;;;;;5144012;27;20054;-78
2022/09/04 06:32:50;;;;;;;3.80;2.50;;;15.40;98.40;;;;;;5158087;27;20043;-78
2022/09/04 06:35:45;;;;;;;5.32;2.72;;;15.50;98.50;;;;;;5157873;27;20043;-78
2022/09/04 06:38:36;;;;;;;6.25;2.65;;;15.60;98.10;;;;;;5157956;27;20122;-78
2022/09/04 06:41:23;;;;;;;8.10;2.30;;;15.70;98.00;;;;;;5157894;27;20129;-78
2022/09/04 06:44:13;;;;;;;3.08;2.03;;;15.80;97.90;;;;;;5158043;27;20438;-78
2022/09/04 06:46:52;;;;;;;5.57;2.35;;;15.90;98.00;;;;;;5157685;27;20046;-78
2022/09/04 06:49:37;;;;;;;3.88;2.15;;;16.00;97.70;;;;;;5139287;27;20046;-78
2022/09/04 06:52:25;;;;;;;3.72;2.40;;;16.00;97.60;;;;;;5157945;27;20504;-78
2022/09/04 06:55:00;;;;;;;7.13;2.47;;;16.10;97.60;;;;;;5157553;27;20049;-78
2022/09/04 06:57:34;;;;;;;4.93;2.70;;;16.20;97.80;;;;;;5139057;27;20508;-78
2022/09/04 07:00:10;;;;;;;4.78;2.72;;;16.30;97.50;;;;;;5157768;27;20054;-78
2022/09/04 07:02:45;;;;;;;4.32;2.20;;;16.50;97.50;;;;;;5139384;27;20038;-78
2022/09/04 07:05:52;;;;;;;4.18;2.20;;;16.60;97.50;;;;;;5157309;27;20051;-79
2022/09/04 07:08:55;;;;;;;3.22;2.03;;;16.70;97.30;;;;;;5129113;27;20134;-79
2022/09/04 07:11:48;;;;;;;4.93;2.40;;;16.90;97.10;;;;;;5157075;27;20057;-78
2022/09/04 07:14:41;;;;;;;4.78;2.38;;;17.10;97.10;;;;;;5156969;27;20083;-78
2022/09/04 07:17:18;;;;;;;3.20;2.30;;;17.30;96.60;;;;;;5156985;27;20095;-78
2022/09/04 07:20:06;;;;;;;6.65;2.38;;;17.40;96.50;;;;;;5157380;27;20409;-78
2022/09/04 07:23:09;;;;;;;6.30;2.38;;;17.50;96.40;;;;;;5155685;27;20046;-78
2022/09/04 07:26:02;;;;;;;3.53;2.15;;;17.70;96.10;;;;;;5156670;27;20535;-78
2022/09/04 07:28:33;;;;;;;5.10;2.22;;;17.80;96.00;;;;;;5156808;27;20057;-78
2022/09/04 07:31:13;;;;;;;3.67;2.00;;;17.90;95.90;;;;;;5156579;27;20089;-78
2022/09/04 07:33:55;;;;;;;7.35;2.55;;;18.00;95.70;;;;;;5157057;27;20099;-78
2022/09/04 07:36:41;;;;;;;4.50;2.00;;;18.20;95.60;;;;;;5156838;27;20453;-78
2022/09/04 07:39:18;;;;;;;5.28;2.20;;;18.20;95.40;;;;;;5121177;27;20141;-78
2022/09/04 07:41:54;;;;;;;4.00;1.98;;;18.40;95.60;;;;;;5156719;27;20133;-78
2022/09/04 07:44:28;;;;;;;4.83;2.10;;;18.40;95.30;;;;;;5137963;27;20039;-78
2022/09/04 07:47:01;;;;;;;5.10;1.75;;;18.50;95.40;;;;;;5137955;27;20372;-78
2022/09/04 07:49:36;;;;;;;3.38;1.90;;;18.60;95.00;;;;;;5156430;27;20435;-78
2022/09/04 07:52:35;;;;;;;4.90;2.10;;;18.80;95.20;;;;;;5156250;27;20068;-79
2022/09/04 07:55:00;;;;;;;3.67;2.10;;;18.80;94.70;;;;;;5138394;27;20058;-78
2022/09/04 07:57:54;;;;;;;6.80;2.40;;;19.00;94.70;;;;;;5156104;27;20091;-78
2022/09/04 08:00:21;;;;;;;6.03;2.28;;;19.10;94.50;;;;;;5156006;27;20042;-78
2022/09/04 08:03:28;;;;;;;3.72;1.98;;;19.20;94.70;;;;;;5155913;27;20039;-78
2022/09/04 08:06:01;;;;;;;5.22;1.90;;;19.30;94.20;;;;;;5051612;28;20090;-78
2022/09/04 08:08:54;;;;;;;3.55;1.83;;;19.50;94.30;;;;;;5051988;28;20049;-78
2022/09/04 08:11:35;;;;;;;4.10;1.90;;;19.60;93.70;;;;;;5124936;27;20051;-79
2022/09/04 08:14:26;;;;;;;5.50;1.88;;;19.70;94.00;;;;;;5138042;27;20129;-79
2022/09/04 08:17:24;;;;;;;3.78;1.88;;;19.80;93.90;;;;;;5155616;27;20045;-78
2022/09/04 08:20:10;;;;;;;4.05;1.60;;;20.00;93.70;;;;;;5156400;27;20043;-78
2022/09/04 08:23:00;;;;;;;3.08;1.67;;;20.20;93.60;;;;;;5155887;27;20390;-78
2022/09/04 08:25:57;;;;;;;3.63;1.50;;;20.20;93.50;;;;;;5155511;27;20047;-78
2022/09/04 08:28:59;;;;;;;4.45;2.22;;;20.40;93.30;;;;;;5155931;27;20439;-78
2022/09/04 08:31:38;;;;;;;1.90;1.40;;;20.50;93.30;;;;;;5155639;27;20133;-78
2022/09/04 08:34:35;;;;;;;4.00;1.70;;;20.60;93.20;;;;;;5155303;27;20074;-78
2022/09/04 08:37:03;;;;;;;3.25;1.73;;;20.70;93.00;;;;;;5155816;27;20065;-79
2022/09/04 08:39:48;;;;;;;4.22;1.80;;;20.80;93.20;;;;;;5137300;27;20039;-79
2022/09/04 08:43:02;;;;;;;5.18;1.80;;;21.00;93.10;;;;;;5136843;27;20042;-78
2022/09/04 08:45:48;;;;;;;5.82;1.80;;;21.10;92.90;;;;;;5155328;27;20647;-78
2022/09/04 08:48:25;;;;;;;3.17;1.80;;;21.20;92.70;;;;;;5137058;27;20481;-78
2022/09/04 08:50:57;;;;;;;3.67;1.88;;;21.20;92.40;;;;;;5156027;27;20061;-78
2022/09/04 08:53:40;;;;;;;3.80;1.42;;;21.40;92.60;;;;;;5155411;27;20387;-78
2022/09/04 08:56:34;;;;;;;3.60;1.70;;;21.50;92.30;;;;;;5155530;27;20043;-78
2022/09/04 08:59:20;;;;;;;2.83;1.42;;;21.60;92.10;;;;;;5155323;27;20126;-78
2022/09/04 09:02:04;;;;;;;4.72;1.58;;;21.60;92.40;;;;;;5155252;27;20039;-77
2022/09/04 09:04:53;;;;;;;2.78;1.70;;;21.70;92.20;;;;;;5155500;27;20046;-78
2022/09/04 09:07:48;;;;;;;3.03;1.60;;;21.80;92.00;;;;;;5137457;27;20129;-78
2022/09/04 09:10:43;;;;;;;3.72;1.50;;;21.90;91.90;;;;;;5155170;27;20094;-78
2022/09/04 09:13:39;;;;;;;2.90;1.70;;;22.10;92.20;;;;;;5155229;27;20062;-78
2022/09/04 09:16:23;;;;;;;2.47;1.60;;;22.20;91.70;;;;;;5155187;27;20047;-78
2022/09/04 09:19:18;;;;;;;2.47;1.50;;;22.30;92.00;;;;;;5136607;27;20046;-78
2022/09/04 09:21:54;;;;;;;4.57;2.03;;;22.40;91.60;;;;;;5154885;27;20046;-78
2022/09/04 09:24:48;;;;;;;3.85;1.60;;;22.40;91.70;;;;;;5155673;27;20042;-79
2022/09/04 09:27:23;;;;;;;3.25;1.40;;;22.60;91.20;;;;;;5136684;27;20386;-78
2022/09/04 09:30:15;;;;;;;4.38;1.90;;;22.60;91.50;;;;;;5154899;27;20049;-77
2022/09/04 09:32:55;;;;;;;4.38;1.40;;;22.80;91.30;;;;;;5155218;27;20398;-78
2022/09/04 09:35:58;;;;;;;2.60;1.38;;;22.70;91.40;;;;;;5155399;27;20042;-78
2022/09/04 09:38:57;;;;;;;5.45;1.58;;;22.90;91.20;;;;;;5136633;27;20097;-78
2022/09/04 09:41:45;;;;;;;3.63;1.38;;;23.00;91.30;;;;;;5154770;27;20070;-78
2022/09/04 09:44:48;;;;;;;3.13;1.40;;;23.20;91.10;;;;;;5154875;27;20100;-78
2022/09/04 09:47:42;;;;;;;3.05;1.60;;;23.50;90.90;;;;;;5037599;28;20126;-78
2022/09/04 09:50:11;;;;;;;5.72;1.60;;;23.60;90.90;;;;;;5158871;27;20045;-78
2022/09/04 09:53:40;;;;;;;2.85;1.40;;;23.80;90.70;;;;;;5140162;27;20510;-78
2022/09/04 09:56:34;;;;;;;4.18;1.38;;;23.90;90.40;;;;;;5158603;27;20126;-78
2022/09/04 09:59:47;;;;;;;3.95;1.63;;;24.10;90.10;;;;;;5139783;27;20046;-78
2022/09/04 10:02:27;;;;;;;4.85;1.50;;;24.20;90.20;;;;;;5135578;27;20043;-78
2022/09/04 10:05:04;;;;;;;5.07;1.48;;;24.40;90.00;;;;;;5158522;27;20078;-78
2022/09/04 10:07:38;;;;;;;2.55;1.50;;;24.40;90.10;;;;;;5158390;27;20449;-78
2022/09/04 10:10:41;;;;;;;3.85;1.45;;;24.50;90.00;;;;;;5158297;27;20122;-79
2022/09/04 10:13:24;;;;;;;2.80;1.40;;;24.50;88.70;;;;;;5158620;27;20078;-78
2022/09/04 10:16:27;;;;;;;5.30;1.45;;;24.60;88.80;;;;;;5158322;27;20046;-78
2022/09/04 10:19:15;;;;;;;3.58;1.48;;;24.60;89.00;;;;;;5158576;27;20474;-78
2022/09/04 10:21:59;;;;;;;;;;;24.70;88.90;;;;;;5158403;27;20043;-78
2022/09/04 10:25:02;;;;;;;2.13;1.20;;;24.80;88.30;;;;;;5158036;27;19919;-78
2022/09/04 10:27:45;;;;;;;3.42;1.42;;;24.80;88.60;;;;;;5139752;27;20069;-78
2022/09/04 10:30:20;;;;;;;3.63;1.40;;;24.80;88.70;;;;;;5158097;27;20099;-78
2022/09/04 10:33:17;;;;;;;3.67;1.30;;;24.90;88.90;;;;;;5139536;27;20043;-78
2022/09/04 10:36:03;;;;;;;3.30;1.23;;;25.10;88.30;;;;;;5157753;27;20051;-79
2022/09/04 10:40:34;;;;;;;3.00;1.20;;;25.20;87.00;;;;;;5139645;27;20051;-78
2022/09/04 10:41:40;;;;;;;4.10;1.50;;;25.30;87.60;;;;;;5157404;27;20050;-78
2022/09/04 10:44:35;;;;;;;2.80;1.40;;;25.30;87.20;;;;;;5157698;27;20035;-78
2022/09/04 10:47:30;;;;;;;5.32;1.40;;;25.30;88.00;;;;;;5157612;27;20490;-78
2022/09/04 10:50:22;;;;;;;4.70;1.30;;;25.40;87.60;;;;;;5157593;27;20046;-78
2022/09/04 10:53:13;;;;;;;4.07;1.52;;;25.40;87.50;;;;;;5122230;27;20055;-78
2022/09/04 10:56:00;;;;;;;3.90;1.20;;;25.50;88.10;;;;;;5157175;27;20043;-78
2022/09/04 10:58:28;;;;;;;3.80;1.48;;;25.60;87.60;;;;;;5157460;27;20063;-79
2022/09/04 11:01:31;;;;;;;2.90;1.48;;;25.60;88.00;;;;;;5157257;27;20047;-78
2022/09/04 11:04:02;;;;;;;2.58;1.45;;;25.80;88.20;;;;;;5157404;27;20046;-79
2022/09/04 11:07:07;;;;;;;4.30;1.52;;;25.90;87.10;;;;;;5139635;27;20049;-78
2022/09/04 11:10:14;;;;;;;5.57;1.63;;;26.00;87.50;;;;;;5157153;27;20039;-78
2022/09/04 11:13:31;;;;;;;6.03;1.45;;;26.10;87.00;;;;;;5108436;27;20072;-79
2022/09/04 11:16:25;;;;;;;3.45;1.30;;;26.10;87.30;;;;;;5113149;27;20057;-78
2022/09/04 11:19:02;;;;;;;3.35;1.38;;;26.20;88.00;;;;;;5157183;27;20077;-79
2022/09/04 11:22:01;;;;;;;4.05;1.40;;;26.20;86.50;;;;;;5139126;27;20505;-79
2022/09/04 11:25:00;;;;;;;3.53;1.30;;;26.30;87.50;;;;;;5156858;27;20042;-79
2022/09/04 11:27:32;;;;;;;2.28;1.10;;;26.40;87.80;;;;;;5156793;27;20049;-79
2022/09/04 11:30:22;;;;;;;2.40;1.42;;;26.60;87.90;;;;;;5156683;27;20082;-78
2022/09/04 11:33:21;;;;;;;2.53;1.25;;;26.60;86.70;;;;;;5156379;27;20042;-79
2022/09/04 11:36:26;;;;;;;4.40;1.40;;;26.70;87.30;;;;;;5157133;27;20382;-78
2022/09/04 11:39:28;;;;;;;2.58;1.38;;;26.80;86.20;;;;;;5156808;27;20042;-78
2022/09/04 11:42:19;;;;;;;2.20;1.38;;;26.90;86.80;;;;;;5156329;27;20054;-78
2022/09/04 11:45:16;;;;;;;4.18;1.45;;;27.00;87.10;;;;;;5138358;27;20146;-78
2022/09/04 11:47:55;;;;;;;3.78;1.60;;;27.10;87.60;;;;;;5156427;27;20121;-79
2022/09/04 11:50:39;;;;;;;3.03;1.15;;;27.20;86.80;;;;;;5156325;27;20054;-78
2022/09/04 11:53:42;;;;;;;3.17;1.20;;;27.30;86.50;;;;;;5138236;27;20051;-78
2022/09/04 11:56:18;;;;;;;2.00;1.25;;;27.30;86.50;;;;;;5156172;27;20046;-78
2022/09/04 11:59:03;;;;;;;2.78;1.35;;;27.30;86.50;;;;;;5156749;27;20121;-78
2022/09/04 12:02:00;;;;;;;2.28;1.30;;;27.40;86.20;;;;;;5156039;27;20049;-78
2022/09/04 12:04:59;;;;;;;3.97;1.10;;;27.40;86.30;;;;;;5155801;27;20371;-78
2022/09/04 12:07:34;;;;;;;2.95;1.45;;;27.50;86.00;;;;;;5124516;27;20050;-78
2022/09/04 12:10:33;;;;;;;4.25;1.25;;;27.50;86.70;;;;;;5137940;27;20062;-78
2022/09/04 12:13:20;;;;;;;1.65;1.13;;;27.60;84.80;;;;;;5155998;27;20090;-78
2022/09/04 12:16:03;;;;;;;1.75;1.17;;;27.70;85.40;;;;;;5121145;27;20054;-79
2022/09/04 12:19:04;;;;;;;2.40;1.00;;;27.60;85.30;;;;;;5155940;27;20478;-78
2022/09/04 12:21:41;;;;;;;3.25;1.30;;;27.60;85.50;;;;;;5155626;27;20524;-79
2022/09/04 12:24:19;;;;;;;2.00;1.30;;;27.60;85.30;;;;;;5138158;27;20105;-79
2022/09/04 12:27:11;;;;;;;1.90;1.20;;;27.70;85.20;;;;;;5155704;27;20050;-79
2022/09/04 12:29:55;;;;;;;2.65;1.38;;;27.60;84.30;;;;;;5155530;27;20038;-78
2022/09/04 12:32:33;;;;;;;2.65;1.20;;;27.60;84.90;;;;;;5155586;27;20059;-79
2022/09/04 12:35:26;;;;;;;2.90;1.25;;;27.60;84.60;;;;;;5120565;27;20082;-78
2022/09/04 12:38:28;;;;;;;2.97;1.40;;;27.60;84.90;;;;;;5155646;27;20118;-78
2022/09/04 12:41:06;;;;;;;5.80;1.25;;;27.60;84.80;;;;;;5155710;27;20089;-78
2022/09/04 12:43:53;;;;;;;3.45;1.25;;;27.60;84.20;;;;;;5155741;27;20489;-78
2022/09/04 12:46:22;;;;;;;3.17;1.30;;;27.60;83.90;;;;;;5155442;27;20459;-78
2022/09/04 12:49:26;;;;;;;2.35;1.15;;;27.70;85.00;;;;;;5155285;27;20085;-78
2022/09/04 12:52:17;;;;;;;3.65;1.10;;;27.60;83.60;;;;;;5155717;27;20047;-78
2022/09/04 12:54:54;;;;;;;2.47;1.20;;;27.70;84.30;;;;;;5155402;27;20125;-79
2022/09/04 12:57:38;;;;;;;2.07;1.10;;;27.70;84.60;;;;;;5155944;27;20442;-79
2022/09/04 13:00:15;;;;;;;3.78;1.23;;;27.70;84.50;;;;;;5155657;27;20074;-79
2022/09/04 13:02:57;;;;;;;3.25;1.25;;;27.80;84.60;;;;;;5155424;27;20402;-79
2022/09/04 13:05:40;;;;;;;3.25;1.27;;;27.90;84.20;;;;;;5155288;27;20137;-79
2022/09/04 13:08:30;;;;;;;2.00;1.08;;;27.90;84.80;;;;;;5155277;27;20485;-79
2022/09/04 13:11:17;;;;;;;2.05;1.27;;;27.80;83.20;;;;;;5155279;27;20498;-79
2022/09/04 13:14:14;;;;;;;2.38;1.10;;;27.90;83.80;;;;;;5154928;27;20039;-79
2022/09/04 13:16:40;;;;;;;3.43;1.47;;;28.00;84.40;;;;;;5154256;27;20039;-79
2022/09/04 13:19:33;;;;;;;3.20;1.20;;;28.10;84.20;;;;;;5156494;27;20339;-78
2022/09/04 13:22:20;;;;;;;1.92;1.10;;;28.20;84.20;;;;;;5159218;27;20086;-79
2022/09/04 13:24:52;;;;;;;;;;;28.30;83.30;;;;;;5159646;27;20397;-78
2022/09/04 13:27:25;;;;;;;5.45;1.25;;;28.40;84.20;;;;;;5159402;27;19919;-79
2022/09/04 13:30:20;;;;;;;3.17;1.25;;;28.50;83.50;;;;;;5159128;27;20050;-78
2022/09/04 13:32:49;;;;;;;3.38;1.20;;;28.50;83.30;;;;;;5159590;27;20086;-79
2022/09/04 13:35:37;;;;;;;3.97;1.30;;;28.50;83.90;;;;;;5140631;27;20381;-79
2022/09/04 13:38:24;;;;;;;2.53;1.20;;;28.50;83.00;;;;;;5158944;27;20088;-78
2022/09/04 13:41:17;;;;;;;2.22;1.15;;;28.40;83.70;;;;;;5158754;27;20121;-79
2022/09/04 13:44:17;;;;;;;3.25;1.20;;;28.50;84.00;;;;;;5158779;27;20042;-79
2022/09/04 13:47:08;;;;;;;1.73;1.15;;;28.50;82.60;;;;;;5158986;27;20438;-79
2022/09/04 13:50:07;;;;;;;2.35;1.30;;;28.30;83.10;;;;;;5144581;27;20047;-78
2022/09/04 13:52:50;;;;;;;2.28;1.40;;;28.40;83.50;;;;;;5140834;27;20046;-78
2022/09/04 13:55:40;;;;;;;2.22;1.23;;;28.30;83.50;;;;;;5140580;27;20394;-78
2022/09/04 13:58:11;;;;;;;6.50;1.27;;;28.20;83.20;;;;;;5158809;27;20042;-79
2022/09/04 14:00:55;;;;;;;2.42;1.30;;;28.20;83.90;;;;;;5158916;27;20102;-79
2022/09/04 14:03:41;;;;;;;2.97;1.40;;;28.20;84.00;;;;;;5158508;27;20088;-78
2022/09/04 14:06:11;;;;;;;4.22;1.33;;;28.20;83.20;;;;;;5140153;27;20085;-79
2022/09/04 14:08:38;;;;;;;2.65;1.23;;;28.10;83.60;;;;;;5140319;27;20047;-78
2022/09/04 14:11:21;;;;;;;1.55;1.13;;;28.20;84.00;;;;;;5158670;27;20057;-78
2022/09/04 14:14:10;;;;;;;3.33;1.30;;;28.20;84.30;;;;;;5158298;27;20039;-78
2022/09/04 14:16:42;;;;;;;2.40;1.33;;;28.10;83.60;;;;;;5158382;27;20487;-78
2022/09/04 14:19:39;;;;;;;4.13;1.30;;;28.10;83.80;;;;;;5139781;27;20095;-79
2022/09/04 14:22:22;;;;;;;3.25;1.10;;;28.10;83.70;;;;;;5158040;27;20046;-78
2022/09/04 14:25:17;;;;;;;3.63;1.42;;;28.10;83.80;;;;;;5158002;27;20057;-78
2022/09/04 14:27:50;;;;;;;3.70;1.30;;;28.10;82.80;;;;;;5157992;27;20054;-78
2022/09/04 14:30:17;;;;;;;2.05;1.20;;;28.00;83.70;;;;;;5157316;27;20043;-78
2022/09/04 14:33:26;;;;;;;2.40;1.30;;;28.10;84.00;;;;;;5157754;27;20473;-78